Time;durP1;ratioP1;P1;durP2;ratioP2;P2;SDS_P1;SDS_P2;PMS_P1;PMS_P2;Temp;Humidity;BMP_temperature;BMP_pressure;BME280_temperature;BME280_humidity;BME280_pressure;Samples;Min_cycle;Max_cycle;Signal;HPM_P1;HPM_P2
2022/03/21 00:00:29;;;;;;;11.12;8.95;;;;;;;5.64;39.38;103731.44;1649060;86;21057;-73
2022/03/21 00:02:57;;;;;;;12.35;8.33;;;;;;;5.62;38.45;103727.51;1687614;84;21115;-67
2022/03/21 00:05:25;;;;;;;12.18;8.60;;;;;;;5.62;38.76;103727.91;1654347;86;21081;-69
2022/03/21 00:07:54;;;;;;;12.23;8.23;;;;;;;5.62;39.37;103721.45;1686040;84;21140;-71
2022/03/21 00:10:23;;;;;;;10.40;8.45;;;;;;;5.66;39.12;103728.52;1685626;84;21588;-70
2022/03/21 00:12:51;;;;;;;11.90;8.93;;;;;;;5.65;39.05;103726.73;1684422;84;21068;-71
2022/03/21 00:15:19;;;;;;;13.13;8.53;;;;;;;5.66;39.12;103728.52;1672351;85;21523;-71
2022/03/21 00:17:48;;;;;;;11.78;9.35;;;;;;;5.67;39.23;103725.10;1729991;81;21066;-70
2022/03/21 00:20:15;;;;;;;12.53;8.88;;;;;;;5.66;39.50;103727.23;1732115;82;21038;-71
2022/03/21 00:22:44;;;;;;;11.88;8.55;;;;;;;5.66;39.82;103724.64;1734116;82;20991;-71
2022/03/21 00:25:12;;;;;;;13.68;8.50;;;;;;;5.65;39.75;103728.03;1733591;82;21038;-73
2022/03/21 00:27:41;;;;;;;12.63;8.35;;;;;;;5.65;39.64;103723.75;1732092;82;21041;-68
2022/03/21 00:30:11;;;;;;;10.30;8.50;;;;;;;5.65;39.73;103724.16;1730906;82;21039;-71
2022/03/21 00:32:38;;;;;;;12.58;8.93;;;;;;;5.65;39.76;103724.16;1702498;84;21545;-68
2022/03/21 00:35:09;;;;;;;11.38;8.05;;;;;;;5.65;39.72;103721.17;1729386;82;21553;-68
2022/03/21 00:37:38;;;;;;;9.53;7.83;;;;;;;5.60;40.00;103712.75;1735160;82;21471;-72
2022/03/21 00:40:08;;;;;;;13.25;8.20;;;;;;;5.58;40.27;103706.62;1728084;82;21039;-68
2022/03/21 00:42:37;;;;;;;10.75;8.03;;;;;;;5.58;40.53;103709.21;1720627;82;21106;-68
2022/03/21 00:45:09;;;;;;;11.70;8.35;;;;;;;5.60;40.81;103705.00;1733725;82;20996;-68
2022/03/21 00:47:37;;;;;;;10.43;7.83;;;;;;;5.59;41.07;103703.21;1620962;87;21240;-69
2022/03/21 00:50:06;;;;;;;9.25;7.80;;;;;;;5.60;41.03;103706.29;1649129;86;21098;-68
2022/03/21 00:52:53;;;;;;;10.15;7.45;;;;;;;5.59;40.69;103701.92;1648040;86;21538;-70
2022/03/21 00:55:22;;;;;;;10.20;7.53;;;;;;;5.57;40.34;103700.56;1648900;85;21104;-68
2022/03/21 00:57:49;;;;;;;9.03;7.70;;;;;;;5.54;40.55;103697.83;1649513;85;21031;-70
2022/03/21 01:00:19;;;;;;;10.82;8.20;;;;;;;5.52;40.86;103695.59;1648589;85;21083;-71
2022/03/21 01:02:48;;;;;;;11.40;8.30;;;;;;;5.52;41.01;103694.73;1649004;85;21571;-72
2022/03/21 01:05:16;;;;;;;19.05;8.28;;;;;;;5.50;41.28;103696.36;1648943;85;21112;-68
2022/03/21 01:07:44;;;;;;;10.15;8.13;;;;;;;5.49;41.43;103693.28;1650443;85;21087;-71
2022/03/21 01:10:15;;;;;;;10.28;7.55;;;;;;;5.49;41.41;103685.53;1651630;85;21040;-68
2022/03/21 01:12:44;;;;;;;10.10;7.58;;;;;;;5.46;41.47;103686.27;1652075;85;21003;-70
2022/03/21 01:15:17;;;;;;;10.18;8.18;;;;;;;5.46;41.69;103688.00;1650103;85;21070;-69
2022/03/21 01:17:48;;;;;;;10.18;8.20;;;;;;;5.46;41.53;103682.83;1655324;85;21802;-75
2022/03/21 01:20:18;;;;;;;9.88;7.83;;;;;;;5.42;41.20;103686.09;1650047;85;21106;-73
2022/03/21 01:22:45;;;;;;;11.43;7.58;;;;;;;5.47;41.13;103689.75;1651889;85;21099;-68
2022/03/21 01:25:13;;;;;;;11.05;7.65;;;;;;;5.47;41.26;103687.16;1651684;85;21123;-70
2022/03/21 01:27:43;;;;;;;9.93;7.15;;;;;;;5.45;41.07;103686.21;1651811;85;21055;-75
2022/03/21 01:30:13;;;;;;;13.40;8.20;;;;;;;5.49;41.00;103688.12;1650458;85;21144;-71
2022/03/21 01:32:42;;;;;;;10.82;8.30;;;;;;;5.50;40.99;103689.91;1649175;85;21032;-70
2022/03/21 01:35:15;;;;;;;9.93;8.10;;;;;;;5.50;41.49;103687.32;1649061;85;21636;-70
2022/03/21 01:37:42;;;;;;;10.68;8.38;;;;;;;5.49;41.68;103682.95;1648547;85;21048;-71
2022/03/21 01:40:12;;;;;;;12.75;9.10;;;;;;;5.47;41.66;103684.58;1649007;85;21135;-70
2022/03/21 01:42:43;;;;;;;9.85;8.28;;;;;;;5.43;41.70;103680.09;1649052;85;21023;-70
2022/03/21 01:45:09;;;;;;;11.57;8.05;;;;;;;5.39;41.62;103683.35;1642359;86;21088;-70
2022/03/21 01:47:36;;;;;;;14.90;8.68;;;;;;;5.38;41.41;103681.60;1651763;85;21100;-71
2022/03/21 01:50:06;;;;;;;11.85;8.45;;;;;;;5.39;41.31;103685.94;1659850;84;21537;-68
2022/03/21 01:52:38;;;;;;;13.10;8.35;;;;;;;5.38;41.15;103687.63;1768034;80;21542;-70
2022/03/21 01:57:52;;;;;;;13.10;9.43;;;;;;;5.28;40.93;103691.00;1769419;80;20099;-69
2022/03/21 02:00:21;;;;;;;12.58;8.45;;;;;;;5.21;41.08;103685.09;1769846;80;21003;-68
2022/03/21 02:02:51;;;;;;;11.70;8.63;;;;;;;5.20;41.21;103688.47;1768802;80;21006;-68
2022/03/21 02:05:19;;;;;;;10.43;9.08;;;;;;;5.20;41.62;103687.18;1769466;80;20963;-69
2022/03/21 02:07:47;;;;;;;11.48;8.83;;;;;;;5.21;42.30;103686.38;1770624;80;20975;-68
2022/03/21 02:10:15;;;;;;;10.48;8.28;;;;;;;5.21;42.60;103685.09;1772330;80;21014;-68
2022/03/21 02:12:44;;;;;;;13.25;8.83;;;;;;;5.21;42.61;103680.82;1772618;80;21022;-71
2022/03/21 02:15:11;;;;;;;8.95;7.97;;;;;;;5.21;42.47;103687.67;1770330;80;21531;-67
2022/03/21 02:17:41;;;;;;;14.25;8.93;;;;;;;5.22;42.42;103686.84;1718779;80;21077;-72
2022/03/21 02:20:10;;;;;;;11.95;8.73;;;;;;;5.24;42.13;103686.51;1744496;80;21030;-71
2022/03/21 02:23:01;;;;;;;11.18;8.95;;;;;;;5.25;42.07;103687.00;1773203;80;21089;-70
2022/03/21 02:25:31;;;;;;;11.22;8.13;;;;;;;5.25;42.29;103689.19;1767888;80;21038;-72
2022/03/21 02:28:10;;;;;;;10.78;8.53;;;;;;;5.25;42.54;103694.75;1773241;80;21018;-70
2022/03/21 02:30:43;;;;;;;13.28;9.53;;;;;;;5.28;42.64;103694.88;1768088;80;21529;-67
2022/03/21 02:33:13;;;;;;;13.15;9.70;;;;;;;5.28;43.14;103689.70;1704034;83;21014;-70
2022/03/21 02:35:44;;;;;;;13.43;9.93;;;;;;;5.23;43.55;103686.94;1704138;83;21034;-68
2022/03/21 02:38:11;;;;;;;12.85;8.83;;;;;;;5.22;43.14;103686.84;1705528;83;21064;-71
2022/03/21 02:40:39;;;;;;;10.58;8.55;;;;;;;5.23;42.59;103693.80;1670538;85;21083;-70
2022/03/21 02:43:07;;;;;;;12.60;9.18;;;;;;;5.20;42.22;103696.22;1683455;85;21518;-68
2022/03/21 02:45:35;;;;;;;13.55;9.23;;;;;;;5.17;42.30;103696.09;1670660;85;21042;-68
2022/03/21 02:48:04;;;;;;;12.03;9.50;;;;;;;5.14;41.93;103699.41;1707980;83;21137;-70
2022/03/21 02:50:45;;;;;;;10.93;8.60;;;;;;;5.15;42.42;103699.00;1690417;84;21591;-68
2022/03/21 02:53:13;;;;;;;12.25;8.40;;;;;;;5.12;43.10;103691.10;1713131;84;21137;-68
2022/03/21 02:55:41;;;;;;;12.78;9.18;;;;;;;5.14;43.06;103690.77;1696007;84;21042;-68
2022/03/21 02:58:08;;;;;;;11.68;8.83;;;;;;;5.15;43.07;103687.39;1691851;84;21121;-72
2022/03/21 03:00:36;;;;;;;12.50;9.55;;;;;;;5.13;42.77;103684.71;1692032;84;21007;-67
2022/03/21 03:03:03;;;;;;;12.68;9.50;;;;;;;5.10;43.56;103687.56;1691796;84;21019;-70
2022/03/21 03:05:31;;;;;;;12.95;8.73;;;;;;;5.05;43.43;103686.48;1700197;84;21070;-68
2022/03/21 03:07:58;;;;;;;12.33;9.70;;;;;;;5.04;43.19;103689.46;1711220;84;21503;-69
2022/03/21 03:10:25;;;;;;;13.03;8.95;;;;;;;5.03;43.07;103681.66;1690050;84;21027;-68
2022/03/21 03:12:52;;;;;;;12.10;8.73;;;;;;;5.08;43.14;103687.91;1674892;84;21106;-67
2022/03/21 03:15:20;;;;;;;12.00;9.48;;;;;;;5.13;43.73;103689.02;1691968;84;21046;-70
2022/03/21 03:17:48;;;;;;;11.45;9.13;;;;;;;5.12;43.78;103684.65;1691883;84;21066;-70
2022/03/21 03:20:17;;;;;;;13.13;9.65;;;;;;;5.11;43.63;103685.48;1637482;87;21090;-68
2022/03/21 03:22:44;;;;;;;13.83;10.43;;;;;;;5.10;43.24;103687.17;1687359;84;21034;-70
2022/03/21 03:25:13;;;;;;;12.82;10.10;;;;;;;5.07;43.38;103686.15;1654119;85;21073;-70
2022/03/21 03:27:41;;;;;;;17.62;10.38;;;;;;;5.04;43.54;103683.41;1666903;85;21534;-68
2022/03/21 03:30:09;;;;;;;12.30;8.93;;;;;;;5.03;43.49;103679.94;1677987;85;21557;-70
2022/03/21 03:32:39;;;;;;;11.15;8.78;;;;;;;5.02;42.09;103679.88;1737409;82;20961;-68
2022/03/21 03:35:08;;;;;;;12.98;8.83;;;;;;;5.00;41.61;103676.34;1742464;82;20994;-68
2022/03/21 03:37:36;;;;;;;13.80;10.35;;;;;;;4.95;41.64;103676.11;1736924;82;21113;-71
2022/03/21 03:40:05;;;;;;;12.80;9.30;;;;;;;4.94;43.05;103677.84;1739107;82;21013;-70
2022/03/21 03:42:35;;;;;;;14.63;10.60;;;;;;;4.95;43.94;103682.16;1673943;85;21031;-70
2022/03/21 03:45:03;;;;;;;12.43;9.60;;;;;;;4.94;44.51;103682.10;1674266;85;21054;-68
2022/03/21 03:47:30;;;;;;;11.95;9.70;;;;;;;4.91;43.14;103681.55;1674416;85;21070;-70
2022/03/21 03:49:59;;;;;;;15.85;10.13;;;;;;;4.88;43.37;103686.54;1713033;82;21074;-71
2022/03/21 03:52:26;;;;;;;14.78;11.12;;;;;;;4.86;43.82;103684.30;1716100;82;21057;-68
2022/03/21 03:54:55;;;;;;;13.65;9.98;;;;;;;4.87;43.17;103683.50;1714520;82;21068;-70
2022/03/21 03:57:24;;;;;;;13.93;10.32;;;;;;;4.88;43.55;103681.81;1680974;85;21549;-70
2022/03/21 03:59:51;;;;;;;12.20;10.25;;;;;;;4.88;43.42;103674.93;1715419;82;20994;-70
2022/03/21 04:02:19;;;;;;;14.38;9.68;;;;;;;4.88;43.84;103671.06;1715645;83;21101;-71
2022/03/21 04:04:48;;;;;;;13.68;9.45;;;;;;;4.86;42.92;103671.39;1683836;85;21053;-70
2022/03/21 04:07:15;;;;;;;14.05;9.53;;;;;;;4.85;42.73;103678.67;1683432;85;21065;-68
2022/03/21 04:09:43;;;;;;;11.70;9.88;;;;;;;4.86;42.76;103679.13;1705943;82;21068;-70
2022/03/21 04:12:11;;;;;;;11.30;9.25;;;;;;;4.83;42.76;103673.84;1681192;85;21542;-71
2022/03/21 04:14:39;;;;;;;11.83;9.53;;;;;;;4.83;42.69;103667.40;1714873;82;21101;-71
2022/03/21 04:17:07;;;;;;;12.00;8.68;;;;;;;4.83;42.65;103664.81;1715849;82;21548;-67
2022/03/21 04:19:35;;;;;;;12.15;8.43;;;;;;;4.85;42.13;103669.64;1736028;80;22309;-70
2022/03/21 04:22:04;;;;;;;12.78;9.08;;;;;;;4.87;41.76;103665.44;1783748;80;21002;-70
2022/03/21 04:24:32;;;;;;;12.30;9.68;;;;;;;4.92;41.69;103660.07;1779240;80;21064;-70
2022/03/21 04:26:59;;;;;;;11.57;9.08;;;;;;;4.94;42.92;103655.90;1777434;80;21030;-70
2022/03/21 04:29:29;;;;;;;12.23;9.63;;;;;;;4.93;42.84;103659.28;1780736;80;21074;-73
2022/03/21 04:31:57;;;;;;;16.95;10.45;;;;;;;4.92;43.25;103663.94;1780030;80;21026;-71
2022/03/21 04:34:24;;;;;;;12.63;10.05;;;;;;;4.90;43.86;103665.56;1766509;80;20991;-69
2022/03/21 04:36:51;;;;;;;14.80;10.63;;;;;;;4.87;44.23;103666.73;1778730;80;21550;-70
2022/03/21 04:39:18;;;;;;;14.30;10.28;;;;;;;4.85;44.07;103663.59;1777713;80;21005;-70
2022/03/21 04:41:47;;;;;;;13.85;10.13;;;;;;;4.80;44.20;103667.23;1779464;80;21010;-70
2022/03/21 04:44:14;;;;;;;14.73;11.18;;;;;;;4.76;44.74;103670.48;1780816;80;21021;-68
2022/03/21 04:46:41;;;;;;;14.87;11.18;;;;;;;4.74;45.16;103672.10;1779897;80;21030;-68
2022/03/21 04:49:10;;;;;;;14.35;10.82;;;;;;;4.70;44.93;103677.92;1772556;80;21133;-68
2022/03/21 04:51:40;;;;;;;14.28;10.82;;;;;;;4.67;45.33;103671.34;1763391;81;21069;-69
2022/03/21 04:54:08;;;;;;;16.85;12.18;;;;;;;4.65;45.50;103665.23;1696364;83;21103;-70
2022/03/21 04:56:36;;;;;;;14.30;11.38;;;;;;;4.64;45.72;103672.87;1696672;83;21071;-74
2022/03/21 04:59:03;;;;;;;13.35;10.60;;;;;;;4.62;46.05;103670.22;1696434;83;21102;-71
2022/03/21 05:01:32;;;;;;;16.40;12.10;;;;;;;4.62;45.99;103671.52;1691966;84;21035;-68
2022/03/21 05:04:00;;;;;;;15.00;11.95;;;;;;;4.61;46.48;103672.34;1694024;83;21083;-71
2022/03/21 05:06:28;;;;;;;13.00;11.40;;;;;;;4.63;46.69;103671.11;1695994;83;21066;-69
2022/03/21 05:08:55;;;;;;;15.63;12.03;;;;;;;4.63;46.51;103677.16;1694253;83;21007;-68
2022/03/21 05:11:24;;;;;;;15.45;11.33;;;;;;;4.62;46.61;103679.64;1702985;83;21047;-69
2022/03/21 05:13:51;;;;;;;13.43;11.08;;;;;;;4.60;46.64;103671.84;1698388;83;21096;-68
2022/03/21 05:16:19;;;;;;;15.58;11.75;;;;;;;4.58;46.81;103663.15;1696875;84;21039;-70
2022/03/21 05:18:50;;;;;;;15.45;12.03;;;;;;;4.57;46.68;103669.14;1699790;83;21027;-70
2022/03/21 05:21:18;;;;;;;14.00;10.53;;;;;;;4.55;46.82;103667.28;1699365;83;21516;-68
2022/03/21 05:32:05;;;;;;;15.70;11.75;;;;;;;4.49;46.63;103657.53;1686968;83;21753;-70
2022/03/21 05:37:18;;;;;;;17.65;11.53;;;;;;;4.47;46.68;103661.73;1695198;84;21046;-70
2022/03/21 05:42:31;;;;;;;17.85;11.53;;;;;;;4.60;46.49;103668.38;1631131;87;21629;-70
2022/03/21 05:44:58;;;;;;;16.67;11.10;;;;;;;4.60;46.42;103670.55;1639718;87;21566;-70
2022/03/21 05:47:25;;;;;;;17.45;10.75;;;;;;;4.60;46.29;103670.95;1631572;87;21550;-71
2022/03/21 05:49:54;;;;;;;14.20;10.68;;;;;;;4.61;46.20;103668.47;1619326;87;21138;-68
2022/03/21 05:52:23;;;;;;;13.75;10.23;;;;;;;4.64;45.94;103669.89;1666562;85;21562;-72
2022/03/21 05:54:50;;;;;;;15.90;11.12;;;;;;;4.67;46.05;103675.22;1668503;85;21087;-73
2022/03/21 05:57:18;;;;;;;15.18;10.63;;;;;;;4.72;46.07;103665.98;1668048;85;21095;-69
2022/03/21 06:02:33;;;;;;;14.18;10.63;;;;;;;4.85;46.01;103664.48;1667882;85;21074;-68
2022/03/21 06:05:02;;;;;;;14.28;10.32;;;;;;;4.98;45.94;103665.06;1663773;85;21114;-70
2022/03/21 06:07:29;;;;;;;14.03;10.32;;;;;;;5.16;45.97;103668.49;1670196;85;21099;-69
2022/03/21 06:09:56;;;;;;;15.00;11.03;;;;;;;5.45;45.64;103673.30;1656319;85;21007;-68
2022/03/21 06:12:25;;;;;;;12.70;10.13;;;;;;;5.75;45.17;103672.97;1666895;85;21102;-69
2022/03/21 06:14:52;;;;;;;14.18;10.88;;;;;;;6.13;44.34;103672.09;1667964;85;21098;-69
2022/03/21 06:17:20;;;;;;;28.32;12.43;;;;;;;6.46;43.70;103676.49;1710435;82;21038;-70
2022/03/21 06:19:47;;;;;;;13.20;10.60;;;;;;;6.69;43.23;103670.96;1735651;82;21035;-68
2022/03/21 06:22:14;;;;;;;11.68;10.35;;;;;;;6.79;42.69;103680.86;1734911;82;21510;-71
2022/03/21 06:24:41;;;;;;;15.70;10.53;;;;;;;6.83;42.28;103685.33;1732758;82;21009;-70
2022/03/21 06:27:08;;;;;;;14.58;10.65;;;;;;;6.75;42.48;103677.27;1731725;82;21082;-71
2022/03/21 06:29:39;;;;;;;14.87;10.90;;;;;;;6.75;42.10;103680.27;1743111;82;21023;-69
2022/03/21 06:32:07;;;;;;;12.63;9.70;;;;;;;6.82;42.15;103675.81;1735701;82;21010;-68
2022/03/21 06:34:34;;;;;;;18.17;10.78;;;;;;;6.90;41.87;103672.72;1733916;82;21579;-70
2022/03/21 06:37:02;;;;;;;13.93;10.68;;;;;;;6.93;41.72;103671.92;1733847;82;21030;-68
2022/03/21 06:39:29;;;;;;;16.15;11.40;;;;;;;6.91;41.82;103679.64;1734861;82;21546;-70
2022/03/21 06:41:56;;;;;;;13.70;11.03;;;;;;;6.91;41.67;103683.92;1730557;82;21010;-74
2022/03/21 06:44:24;;;;;;;12.78;10.43;;;;;;;6.91;41.98;103669.29;1738043;82;21019;-70
2022/03/21 06:46:51;;;;;;;13.38;10.20;;;;;;;7.06;42.10;103666.02;1724292;82;21053;-68
2022/03/21 06:49:20;;;;;;;12.25;10.38;;;;;;;7.38;41.84;103673.69;1747903;80;21049;-71
2022/03/21 06:51:47;;;;;;;12.68;10.28;;;;;;;7.64;41.44;103665.20;1775082;80;21014;-68
2022/03/21 06:54:14;;;;;;;13.72;10.15;;;;;;;7.92;40.81;103657.56;1775367;80;21460;-68
2022/03/21 06:56:43;;;;;;;13.00;9.13;;;;;;;8.14;40.26;103662.66;1770715;80;21089;-68
2022/03/21 06:59:10;;;;;;;11.88;9.68;;;;;;;8.29;39.23;103661.44;1767252;80;21061;-74
2022/03/21 07:01:37;;;;;;;12.47;9.60;;;;;;;8.29;38.98;103648.47;1772092;80;20982;-73
2022/03/21 07:04:05;;;;;;;14.95;9.40;;;;;;;8.33;38.91;103656.82;1772197;80;21486;-72
2022/03/21 07:06:33;;;;;;;12.95;9.78;;;;;;;8.48;38.69;103655.63;1768190;80;21534;-69
2022/03/21 07:09:00;;;;;;;12.37;9.98;;;;;;;8.64;38.03;103658.30;1775392;80;21059;-72
2022/03/21 07:11:29;;;;;;;11.38;8.90;;;;;;;8.69;37.80;103659.34;1770750;80;21033;-70
2022/03/21 07:13:57;;;;;;;12.25;10.00;;;;;;;8.73;37.75;103654.70;1775361;80;20986;-70
2022/03/21 07:16:25;;;;;;;11.97;9.65;;;;;;;8.76;37.77;103651.78;1774929;80;21502;-72
2022/03/21 07:18:53;;;;;;;10.80;9.28;;;;;;;8.79;37.71;103641.92;1772022;80;21062;-71
2022/03/21 07:21:21;;;;;;;15.18;9.80;;;;;;;8.78;38.00;103641.44;1772173;80;21485;-69
2022/03/21 07:23:49;;;;;;;12.10;9.65;;;;;;;8.83;37.47;103642.48;1771940;80;21027;-72
2022/03/21 07:26:16;;;;;;;11.45;9.38;;;;;;;8.84;37.30;103641.22;1765121;80;21104;-72
2022/03/21 07:28:43;;;;;;;10.20;8.80;;;;;;;8.84;37.67;103644.25;1775046;80;20991;-71
2022/03/21 07:31:13;;;;;;;12.53;9.13;;;;;;;8.86;37.90;103643.89;1773919;80;21541;-68
2022/03/21 07:33:43;;;;;;;10.55;8.93;;;;;;;8.92;37.73;103640.17;1778611;80;20979;-69
2022/03/21 07:36:10;;;;;;;10.30;8.90;;;;;;;9.00;37.56;103643.89;1771833;80;21023;-73
2022/03/21 07:38:39;;;;;;;12.75;9.10;;;;;;;9.08;37.39;103633.31;1771415;80;21049;-71
2022/03/21 07:41:07;;;;;;;12.60;9.85;;;;;;;9.09;37.36;103636.35;1772516;80;21026;-69
2022/03/21 07:43:37;;;;;;;10.65;9.08;;;;;;;9.04;37.31;103639.25;1771824;80;21015;-72
2022/03/21 07:48:52;;;;;;;11.40;8.78;;;;;;;8.98;37.13;103631.27;1773588;80;21077;-70
2022/03/21 07:51:19;;;;;;;10.05;8.73;;;;;;;9.00;37.08;103623.11;1770905;81;21061;-71
2022/03/21 07:53:46;;;;;;;10.72;8.43;;;;;;;8.99;37.10;103620.92;1764355;81;21541;-73
2022/03/21 07:56:14;;;;;;;10.20;8.50;;;;;;;9.00;37.20;103622.66;1753468;81;21507;-71
2022/03/21 07:58:41;;;;;;;11.10;9.15;;;;;;;9.02;36.47;103620.14;1766902;81;21010;-69
2022/03/21 08:01:09;;;;;;;10.53;7.90;;;;;;;9.05;35.72;103611.12;1766386;81;21570;-71
2022/03/21 08:03:36;;;;;;;11.80;8.15;;;;;;;9.06;35.87;103618.09;1763767;81;21046;-68
2022/03/21 08:06:10;;;;;;;10.18;8.55;;;;;;;9.10;35.77;103616.05;1765487;81;21046;-72
2022/03/21 08:08:34;;;;;;;9.70;7.80;;;;;;;9.11;35.81;103621.69;1762726;81;21070;-71
2022/03/21 08:11:02;;;;;;;10.55;8.45;;;;;;;9.16;35.64;103618.83;1770722;80;21031;-70
2022/03/21 08:13:32;;;;;;;11.10;8.60;;;;;;;9.18;35.45;103613.25;1766542;81;21487;-69
2022/03/21 08:16:02;;;;;;;12.40;8.65;;;;;;;9.20;35.49;103607.69;1765233;81;21022;-69
2022/03/21 08:18:30;;;;;;;10.88;9.20;;;;;;;9.22;35.79;103602.12;1763624;81;20999;-70
2022/03/21 08:20:59;;;;;;;9.25;7.95;;;;;;;9.27;35.30;103604.44;1763071;81;20975;-71
2022/03/21 08:23:27;;;;;;;9.93;8.15;;;;;;;9.34;35.29;103599.86;1763803;81;21514;-72
2022/03/21 08:25:57;;;;;;;9.30;7.33;;;;;;;9.41;34.97;103594.02;1763562;81;20994;-71
2022/03/21 08:28:25;;;;;;;9.73;8.35;;;;;;;9.46;35.03;103594.15;1760401;81;21023;-71
2022/03/21 08:30:53;;;;;;;9.43;7.97;;;;;;;9.50;35.67;103594.25;1760048;81;21014;-69
2022/03/21 08:33:21;;;;;;;10.90;8.30;;;;;;;9.52;36.08;103596.91;1766698;81;21039;-73
2022/03/21 08:35:49;;;;;;;10.68;7.87;;;;;;;9.53;35.91;103595.65;1765845;81;21070;-71
2022/03/21 08:38:16;;;;;;;10.55;8.08;;;;;;;9.54;35.29;103594.80;1762851;81;21494;-70
2022/03/21 08:40:44;;;;;;;9.75;7.67;;;;;;;9.55;34.80;103593.97;1767101;80;21455;-71
2022/03/21 08:43:12;;;;;;;9.98;7.87;;;;;;;9.60;34.88;103591.50;1766411;81;21039;-69
2022/03/21 08:45:40;;;;;;;9.33;7.58;;;;;;;9.67;34.49;103598.61;1763695;81;20974;-72
2022/03/21 08:48:08;;;;;;;10.85;8.25;;;;;;;9.74;34.12;103590.15;1751244;81;21054;-69
2022/03/21 08:50:37;;;;;;;9.68;8.10;;;;;;;9.79;34.04;103586.82;1772216;80;21093;-69
2022/03/21 08:53:04;;;;;;;11.85;8.23;;;;;;;9.86;34.06;103586.56;1773659;80;20987;-71
2022/03/21 08:55:32;;;;;;;8.60;7.37;;;;;;;9.94;34.16;103586.75;1771552;80;21077;-71
2022/03/21 08:57:59;;;;;;;9.18;7.47;;;;;;;10.01;34.58;103588.69;1772007;80;21534;-72
2022/03/21 09:00:27;;;;;;;9.38;7.55;;;;;;;10.10;33.79;103578.52;1771603;80;21065;-69
2022/03/21 09:02:55;;;;;;;10.50;7.90;;;;;;;10.16;33.64;103580.01;1772072;80;21014;-71
2022/03/21 09:05:23;;;;;;;9.70;7.72;;;;;;;10.25;33.25;103580.22;1771979;80;20998;-71
2022/03/21 09:07:51;;;;;;;10.53;7.67;;;;;;;10.31;32.92;103571.25;1768062;80;21061;-69
2022/03/21 09:10:20;;;;;;;10.63;8.00;;;;;;;10.37;32.95;103568.79;1774835;80;21030;-71
2022/03/21 09:12:49;;;;;;;7.72;6.85;;;;;;;10.43;32.74;103575.02;1774290;80;21030;-71
2022/03/21 09:15:18;;;;;;;7.62;6.78;;;;;;;10.49;33.00;103569.95;1778670;80;21034;-71
2022/03/21 09:17:47;;;;;;;9.70;7.90;;;;;;;10.52;31.93;103559.63;1773210;80;21077;-69
2022/03/21 09:20:15;;;;;;;9.80;7.70;;;;;;;10.56;32.00;103561.46;1773858;80;21030;-69
2022/03/21 09:22:42;;;;;;;8.33;6.97;;;;;;;10.60;32.09;103559.80;1761261;80;21613;-69
2022/03/21 09:25:20;;;;;;;;;;;;;;;;;;;;;
2022/03/21 09:27:42;;;;;;;8.38;6.42;;;;;;;10.65;31.64;103554.28;1699627;83;21006;-72
2022/03/21 09:30:10;;;;;;;6.42;5.78;;;;;;;10.69;31.55;103552.20;1711210;83;21745;-72
2022/03/21 09:32:37;;;;;;;8.10;5.87;;;;;;;10.75;30.92;103554.94;1713072;83;21005;-69
2022/03/21 09:35:08;;;;;;;7.35;5.80;;;;;;;10.83;30.62;103555.98;1713396;83;21066;-75
2022/03/21 09:37:36;;;;;;;6.70;5.75;;;;;;;10.89;30.27;103548.30;1714309;83;21109;-72
2022/03/21 09:40:06;;;;;;;8.28;6.72;;;;;;;10.96;29.98;103544.09;1708272;83;21007;-72
2022/03/21 09:42:36;;;;;;;7.53;6.53;;;;;;;11.01;29.96;103535.52;1711414;83;21573;-70
2022/03/21 09:45:05;;;;;;;6.47;5.83;;;;;;;11.07;29.90;103532.15;1704636;83;21190;-71
2022/03/21 09:50:20;;;;;;;8.80;6.45;;;;;;;11.21;29.32;103533.33;1712300;83;21569;-72
2022/03/21 09:52:48;;;;;;;6.78;6.00;;;;;;;11.30;28.97;103534.38;1711107;83;21585;-72
2022/03/21 09:55:15;;;;;;;7.55;6.33;;;;;;;11.40;28.88;103522.38;1711084;83;21006;-70
2022/03/21 09:57:42;;;;;;;7.55;6.58;;;;;;;11.52;28.65;103521.75;1718690;80;21549;-71
2022/03/21 10:00:12;;;;;;;7.05;6.35;;;;;;;11.63;29.16;103513.67;1778457;80;21470;-69
2022/03/21 10:02:39;;;;;;;7.85;6.87;;;;;;;11.74;29.25;103516.09;1772758;80;21048;-72
2022/03/21 10:05:10;;;;;;;9.00;7.47;;;;;;;11.83;29.12;103509.28;1774999;80;21018;-74
2022/03/21 10:07:39;;;;;;;8.25;7.37;;;;;;;11.93;29.07;103509.03;1774608;80;21041;-73
2022/03/21 10:10:16;;;;;;;10.75;7.37;;;;;;;12.01;29.33;103506.11;1773970;80;20979;-70
2022/03/21 10:12:45;;;;;;;9.55;7.70;;;;;;;12.08;30.15;103502.73;1778453;80;21070;-71
2022/03/21 10:15:12;;;;;;;8.55;7.25;;;;;;;12.15;30.05;103500.67;1766298;80;21049;-69
2022/03/21 10:17:40;;;;;;;8.98;7.47;;;;;;;12.22;31.61;103498.59;1767913;80;21022;-71
2022/03/21 10:20:14;;;;;;;10.50;7.95;;;;;;;12.27;31.88;103493.02;1764405;80;21018;-72
2022/03/21 10:22:43;;;;;;;10.05;7.72;;;;;;;12.33;30.91;103489.19;1759803;80;21735;-72
2022/03/21 10:25:10;;;;;;;10.95;8.53;;;;;;;12.39;32.48;103484.05;1759421;80;21022;-72
2022/03/21 10:27:41;;;;;;;8.83;7.80;;;;;;;12.45;33.81;103485.44;1772529;80;21035;-70
2022/03/21 10:30:13;;;;;;;9.40;7.72;;;;;;;12.51;33.87;103478.14;1765528;80;20947;-72
2022/03/21 10:32:46;;;;;;;9.70;8.28;;;;;;;12.54;34.23;103473.83;1765599;80;21526;-68
2022/03/21 10:35:22;;;;;;;9.70;7.47;;;;;;;12.59;34.08;103464.75;1765538;80;21038;-70
2022/03/21 10:37:58;;;;;;;9.73;7.95;;;;;;;12.63;34.90;103458.25;1765686;80;20978;-70
2022/03/21 10:40:33;;;;;;;10.78;8.13;;;;;;;12.66;35.52;103459.61;1770064;80;20994;-68
2022/03/21 10:43:07;;;;;;;12.58;8.25;;;;;;;12.70;35.60;103457.48;1720747;82;21549;-70
2022/03/21 10:45:41;;;;;;;9.83;8.03;;;;;;;12.74;35.77;103455.36;1692089;85;21051;-69
2022/03/21 10:48:21;;;;;;;9.18;8.18;;;;;;;12.77;35.58;103447.57;1720168;82;21059;-70
2022/03/21 10:50:51;;;;;;;12.98;8.18;;;;;;;12.80;36.16;103442.36;1721295;83;21135;-71
2022/03/21 10:53:24;;;;;;;10.38;7.92;;;;;;;12.83;36.62;103434.99;1723074;82;21043;-71
2022/03/21 10:56:03;;;;;;;11.40;8.30;;;;;;;12.86;36.65;103434.59;1723090;82;20983;-70
2022/03/21 10:58:47;;;;;;;10.43;7.67;;;;;;;12.89;36.37;103425.91;1666625;86;21007;-68
2022/03/21 11:01:20;;;;;;;8.75;7.83;;;;;;;12.90;36.54;103426.37;1655906;86;21548;-71
2022/03/21 11:03:50;;;;;;;8.93;7.70;;;;;;;12.91;36.81;103422.47;1647911;86;21065;-70
2022/03/21 11:06:18;;;;;;;11.57;8.00;;;;;;;12.94;36.69;103423.79;1657246;86;21066;-68
2022/03/21 11:08:50;;;;;;;8.98;7.90;;;;;;;12.97;36.35;103413.37;1660583;86;21170;-70
2022/03/21 11:11:16;;;;;;;9.98;8.25;;;;;;;12.99;36.04;103405.55;1656404;86;21101;-68
2022/03/21 11:13:49;;;;;;;10.05;8.95;;;;;;;13.01;35.98;103394.25;1655391;86;21050;-73
2022/03/21 11:16:18;;;;;;;11.75;7.90;;;;;;;13.02;35.84;103400.37;1655536;86;21570;-68
2022/03/21 11:18:48;;;;;;;9.45;8.45;;;;;;;13.03;36.00;103397.76;1660984;86;21105;-68
2022/03/21 11:21:15;;;;;;;9.80;8.58;;;;;;;13.05;36.43;103396.07;1656868;86;21547;-70
2022/03/21 11:23:43;;;;;;;12.95;8.30;;;;;;;13.08;36.68;103386.50;1657389;86;21086;-68
2022/03/21 11:26:39;;;;;;;9.23;8.33;;;;;;;13.09;36.49;103383.89;1656024;86;21118;-70
2022/03/21 11:29:35;;;;;;;10.60;8.70;;;;;;;13.11;36.85;103376.09;1654002;86;21571;-73
2022/03/21 11:32:38;;;;;;;9.08;8.13;;;;;;;13.12;36.55;103372.59;1654416;84;21060;-71
2022/03/21 11:35:14;;;;;;;8.53;7.72;;;;;;;13.13;36.30;103373.91;1632976;87;21073;-70
2022/03/21 11:37:43;;;;;;;10.15;8.15;;;;;;;13.14;36.64;103369.56;1644253;87;21616;-67
2022/03/21 11:40:35;;;;;;;10.65;8.00;;;;;;;13.15;36.87;103371.34;1665090;85;21066;-71
2022/03/21 11:43:25;;;;;;;9.40;7.95;;;;;;;13.19;36.88;103373.11;1668385;85;21038;-68
2022/03/21 11:45:55;;;;;;;9.40;7.30;;;;;;;13.27;36.91;103362.29;1631727;85;21081;-74
2022/03/21 11:48:26;;;;;;;9.48;8.20;;;;;;;13.40;36.58;103361.50;1676032;85;21085;-70
2022/03/21 11:51:11;;;;;;;9.68;7.85;;;;;;;13.50;36.01;103355.47;1674379;85;21259;-71
2022/03/21 11:53:49;;;;;;;9.58;8.33;;;;;;;13.58;35.57;103345.97;1668392;85;21070;-71
2022/03/21 11:56:34;;;;;;;9.88;8.23;;;;;;;13.63;35.04;103346.86;1701264;83;21042;-68
2022/03/21 11:59:01;;;;;;;10.18;7.90;;;;;;;13.63;35.10;103344.24;1699458;84;20991;-69